createdAt,value
2022-10-17T00:01:02.167Z,79.05
2022-10-17T00:03:35.877Z,79.03
2022-10-17T00:06:08.334Z,79.11
2022-10-17T00:08:37.037Z,79.14
2022-10-17T00:11:07.584Z,79.19
2022-10-17T00:13:35.816Z,79.04
2022-10-17T00:16:04.200Z,78.91
2022-10-17T00:18:32.344Z,78.94
2022-10-17T00:21:00.457Z,78.89
2022-10-17T00:23:30.549Z,79.03
2022-10-17T00:26:02.390Z,78.97
2022-10-17T00:28:31.005Z,78.92
2022-10-17T00:31:00.456Z,78.79
2022-10-17T00:33:29.300Z,78.63
2022-10-17T00:36:08.621Z,78.51
2022-10-17T00:38:37.344Z,78.59
2022-10-17T00:41:05.962Z,78.55
2022-10-17T00:43:50.601Z,78.21
2022-10-17T00:46:19.172Z,78.34
2022-10-17T00:48:48.934Z,79.06
2022-10-17T00:51:19.118Z,79.65
2022-10-17T00:53:47.318Z,79.69
2022-10-17T00:56:15.614Z,79.48
2022-10-17T00:58:45.171Z,79.45
2022-10-17T01:01:13.379Z,79.36
2022-10-17T01:03:41.622Z,79.29
2022-10-17T01:06:09.679Z,79.23
2022-10-17T01:08:38.182Z,79.35
2022-10-17T01:11:24.947Z,79.35
2022-10-17T01:13:57.394Z,79.55
2022-10-17T01:16:36.049Z,79.31
2022-10-17T01:19:09.966Z,79.16
2022-10-17T01:21:38.140Z,78.90
2022-10-17T01:24:15.345Z,78.76
2022-10-17T01:26:58.889Z,78.66
2022-10-17T01:29:30.693Z,78.95
2022-10-17T01:32:02.138Z,79.02
2022-10-17T01:34:45.583Z,78.91
2022-10-17T01:37:14.995Z,79.29
2022-10-17T01:39:47.758Z,79.30
2022-10-17T01:42:19.430Z,79.07
2022-10-17T01:44:50.820Z,79.34
2022-10-17T01:47:20.984Z,79.36
2022-10-17T01:49:51.048Z,79.15
2022-10-17T01:52:21.194Z,79.44
2022-10-17T01:54:52.113Z,79.28
2022-10-17T01:57:29.886Z,78.98
2022-10-17T01:59:59.432Z,78.75
2022-10-17T02:02:28.055Z,78.79
2022-10-17T02:04:57.611Z,79.44
2022-10-17T02:07:26.533Z,79.67
2022-10-17T02:09:54.867Z,79.91
2022-10-17T02:12:45.845Z,80.45
2022-10-17T02:15:17.177Z,80.35
2022-10-17T02:17:45.605Z,79.93
2022-10-17T02:20:13.770Z,80.56
2022-10-17T02:22:54.285Z,80.04
2022-10-17T02:25:22.416Z,79.92
2022-10-17T02:28:19.389Z,79.86
2022-10-17T02:30:50.588Z,79.47
2022-10-17T02:33:37.559Z,79.28
2022-10-17T02:36:17.271Z,79.47
2022-10-17T02:38:45.832Z,80.33
2022-10-17T02:41:16.932Z,80.27
2022-10-17T02:43:47.546Z,80.15
2022-10-17T02:46:22.878Z,80.05
2022-10-17T02:48:50.987Z,79.84
2022-10-17T02:51:36.907Z,79.77
2022-10-17T02:54:28.556Z,79.48
2022-10-17T02:57:02.718Z,79.49
2022-10-17T03:02:04.536Z,79.63
2022-10-17T03:04:33.238Z,79.88
2022-10-17T03:07:01.369Z,79.82
2022-10-17T03:09:29.491Z,79.73
2022-10-17T03:11:58.517Z,79.54
2022-10-17T03:14:26.816Z,80.00
2022-10-17T03:16:54.938Z,79.88
2022-10-17T03:19:23.187Z,79.70
2022-10-17T03:21:52.126Z,79.85
2022-10-17T03:24:20.234Z,79.70
2022-10-17T03:26:48.402Z,79.59
2022-10-17T03:29:16.542Z,79.72
2022-10-17T03:31:44.815Z,79.53
2022-10-17T03:34:12.922Z,79.38
2022-10-17T03:36:41.110Z,79.59
2022-10-17T03:39:09.247Z,79.89
2022-10-17T03:41:37.556Z,79.86
2022-10-17T03:44:05.805Z,80.06
2022-10-17T03:46:34.279Z,80.27
2022-10-17T03:49:02.408Z,80.11
2022-10-17T03:51:32.817Z,80.27
2022-10-17T03:54:03.705Z,80.35
2022-10-17T03:56:32.033Z,80.58
2022-10-17T03:59:12.719Z,80.20
2022-10-17T04:01:41.028Z,80.37
2022-10-17T04:04:09.424Z,80.80
2022-10-17T04:06:38.176Z,80.94
2022-10-17T04:09:07.124Z,80.58
2022-10-17T04:11:42.215Z,80.33
2022-10-17T04:14:10.780Z,80.69
2022-10-17T04:16:39.571Z,80.69
2022-10-17T04:19:13.987Z,80.68
2022-10-17T04:21:45.718Z,80.36
2022-10-17T04:24:14.976Z,80.23
2022-10-17T04:26:51.185Z,80.25
2022-10-17T04:29:19.858Z,80.01
2022-10-17T04:31:52.475Z,80.51
2022-10-17T04:34:24.795Z,80.72
2022-10-17T04:36:53.136Z,80.68
2022-10-17T04:39:21.472Z,80.84
2022-10-17T04:41:49.635Z,81.20
2022-10-17T04:44:18.224Z,80.95
2022-10-17T04:46:50.474Z,80.52
2022-10-17T04:49:18.714Z,80.47
2022-10-17T04:51:48.590Z,80.53
2022-10-17T04:54:30.848Z,81.07
2022-10-17T04:57:05.031Z,80.67
2022-10-17T04:59:33.360Z,80.86
2022-10-17T05:02:13.830Z,80.27
2022-10-17T05:04:41.968Z,80.49
2022-10-17T05:07:10.456Z,80.78
2022-10-17T05:09:49.423Z,80.89
2022-10-17T05:12:17.835Z,81.00
2022-10-17T05:14:46.430Z,81.56
2022-10-17T05:17:14.786Z,81.23
2022-10-17T05:19:43.030Z,79.96
2022-10-17T05:22:11.160Z,79.68
2022-10-17T05:24:40.439Z,79.64
2022-10-17T05:27:09.761Z,79.74
2022-10-17T05:29:38.248Z,79.25
2022-10-17T05:32:12.320Z,78.86
2022-10-17T05:34:40.918Z,78.90
2022-10-17T05:37:09.090Z,78.44
2022-10-17T05:39:37.425Z,77.70
2022-10-17T05:42:05.970Z,77.00
2022-10-17T05:44:34.291Z,77.06
2022-10-17T05:47:02.750Z,76.31
2022-10-17T05:49:39.981Z,76.48
2022-10-17T05:52:13.417Z,75.96
2022-10-17T05:55:07.816Z,75.08
2022-10-17T05:57:35.944Z,74.52
2022-10-17T06:00:05.797Z,74.48
2022-10-17T06:02:43.773Z,74.01
2022-10-17T06:05:15.905Z,73.16
2022-10-17T06:07:44.479Z,72.99
2022-10-17T06:10:16.562Z,72.57
2022-10-17T06:12:45.421Z,71.86
2022-10-17T06:15:13.625Z,71.02
2022-10-17T06:17:44.310Z,71.14
2022-10-17T06:20:12.464Z,71.57
2022-10-17T06:22:40.581Z,71.48
2022-10-17T06:25:15.009Z,70.55
2022-10-17T06:27:43.390Z,70.15
2022-10-17T06:30:12.754Z,69.62
2022-10-17T06:32:40.915Z,68.38
2022-10-17T06:35:09.426Z,68.36
2022-10-17T06:37:38.220Z,66.83
2022-10-17T06:40:12.325Z,66.08
2022-10-17T06:42:41.658Z,65.05
2022-10-17T06:45:24.920Z,64.66
2022-10-17T06:48:11.481Z,63.35
2022-10-17T06:50:53.297Z,63.74
2022-10-17T06:53:32.377Z,60.98
2022-10-17T06:56:19.592Z,59.79
2022-10-17T06:58:55.560Z,59.13
2022-10-17T07:01:31.079Z,58.45
2022-10-17T07:04:01.369Z,57.65
2022-10-17T07:06:31.289Z,59.15
2022-10-17T07:09:03.590Z,56.86
2022-10-17T07:11:31.871Z,56.28
2022-10-17T07:13:59.994Z,55.53
2022-10-17T07:16:28.304Z,55.48
2022-10-17T07:19:04.045Z,55.57
2022-10-17T07:21:39.011Z,52.89
2022-10-17T07:24:08.730Z,53.14
2022-10-17T07:26:36.915Z,54.51
2022-10-17T07:29:06.627Z,54.19
2022-10-17T07:32:00.925Z,54.09
2022-10-17T07:34:31.590Z,53.20
2022-10-17T07:37:00.320Z,52.92
2022-10-17T07:39:29.349Z,53.21
2022-10-17T07:41:58.973Z,52.31
2022-10-17T07:44:27.123Z,51.84
2022-10-17T07:46:55.681Z,51.60
2022-10-17T07:49:25.554Z,51.45
2022-10-17T07:51:53.690Z,50.60
2022-10-17T07:54:21.952Z,50.69
2022-10-17T07:56:50.793Z,49.98
2022-10-17T07:59:19.535Z,49.97
2022-10-17T08:01:47.664Z,49.66
2022-10-17T08:04:16.971Z,48.77
2022-10-17T08:06:45.142Z,48.91
2022-10-17T08:09:13.288Z,50.08
2022-10-17T08:11:44.137Z,49.28
2022-10-17T08:14:13.334Z,48.74
2022-10-17T08:16:41.483Z,49.47
2022-10-17T08:19:11.647Z,50.40
2022-10-17T08:21:39.768Z,50.23
2022-10-17T08:24:08.000Z,49.53
2022-10-17T08:26:39.294Z,50.14
2022-10-17T08:29:14.344Z,49.74
2022-10-17T08:31:46.548Z,50.07
2022-10-17T08:34:16.533Z,50.45
2022-10-17T08:36:44.684Z,50.96
2022-10-17T08:39:12.879Z,49.21
2022-10-17T08:41:41.034Z,49.09
2022-10-17T08:44:16.657Z,49.45
2022-10-17T08:46:47.458Z,49.31
2022-10-17T08:49:35.896Z,49.38
2022-10-17T08:52:07.705Z,49.63
2022-10-17T08:54:35.754Z,49.06
2022-10-17T08:57:03.973Z,48.73
2022-10-17T08:59:32.178Z,48.20
2022-10-17T09:02:19.117Z,49.34
2022-10-17T09:04:47.267Z,49.52
2022-10-17T09:07:15.589Z,49.98
2022-10-17T09:09:49.628Z,49.71
2022-10-17T09:12:21.117Z,48.93
2022-10-17T09:14:55.285Z,48.13
2022-10-17T09:17:23.351Z,47.86
2022-10-17T09:19:51.445Z,47.42
2022-10-17T09:22:22.845Z,47.17
2022-10-17T09:24:50.937Z,44.99
2022-10-17T09:27:22.060Z,45.40
2022-10-17T09:29:54.713Z,45.46
2022-10-17T09:32:24.627Z,46.02
2022-10-17T09:34:53.502Z,45.49
2022-10-17T09:37:25.745Z,46.30
2022-10-17T09:39:54.007Z,46.83
2022-10-17T09:42:27.173Z,47.48
2022-10-17T09:45:01.803Z,47.89
2022-10-17T09:47:34.998Z,48.31
2022-10-17T09:50:03.157Z,48.38
2022-10-17T09:52:35.875Z,48.03
2022-10-17T09:55:15.935Z,48.11
2022-10-17T09:57:52.983Z,47.92
2022-10-17T10:00:24.993Z,48.25
2022-10-17T10:03:08.360Z,47.28
2022-10-17T10:05:36.576Z,46.85
2022-10-17T10:08:06.025Z,46.45
2022-10-17T10:10:34.361Z,46.12
2022-10-17T10:13:04.396Z,47.01
2022-10-17T10:15:34.405Z,46.42
2022-10-17T10:18:03.002Z,45.59
2022-10-17T10:20:33.095Z,45.78
2022-10-17T10:23:10.025Z,45.63
2022-10-17T10:25:38.331Z,46.60
2022-10-17T10:28:12.430Z,46.66
2022-10-17T10:30:40.605Z,47.61
2022-10-17T10:33:11.559Z,46.33
2022-10-17T10:35:39.793Z,44.59
2022-10-17T10:38:14.363Z,43.12
2022-10-17T10:40:50.697Z,44.22
2022-10-17T10:43:23.557Z,44.31
2022-10-17T10:45:52.313Z,44.16
2022-10-17T10:48:27.881Z,43.91
2022-10-17T10:50:59.005Z,43.48
2022-10-17T10:53:27.139Z,44.03
2022-10-17T10:55:57.219Z,43.37
2022-10-17T10:58:28.649Z,43.18
2022-10-17T11:00:59.191Z,44.06
2022-10-17T11:03:32.100Z,42.28
2022-10-17T11:06:03.367Z,42.73
2022-10-17T11:08:31.451Z,42.70
2022-10-17T11:11:02.552Z,43.11
2022-10-17T11:13:43.736Z,42.22
2022-10-17T11:16:11.844Z,42.56
2022-10-17T11:18:44.955Z,42.73
2022-10-17T11:21:19.380Z,42.17
2022-10-17T11:23:47.503Z,42.09
2022-10-17T11:26:29.495Z,41.16
2022-10-17T11:28:58.943Z,42.10
2022-10-17T11:31:39.387Z,41.80
2022-10-17T11:34:19.624Z,40.56
2022-10-17T11:36:50.216Z,40.28
2022-10-17T11:39:20.565Z,40.24
2022-10-17T11:41:48.650Z,40.24
2022-10-17T11:44:26.850Z,40.15
2022-10-17T11:46:57.553Z,39.43
2022-10-17T11:49:29.086Z,39.83
2022-10-17T11:52:22.805Z,39.30
2022-10-17T11:55:02.346Z,39.56
2022-10-17T11:57:34.992Z,39.36
2022-10-17T12:00:12.137Z,39.35
2022-10-17T12:03:06.544Z,40.13
2022-10-17T12:05:37.456Z,39.63
2022-10-17T12:08:25.256Z,40.62
2022-10-17T12:10:58.499Z,40.38
2022-10-17T12:13:30.501Z,40.29
2022-10-17T12:16:18.511Z,40.47
2022-10-17T12:18:48.195Z,39.67
2022-10-17T12:21:16.415Z,38.87
2022-10-17T12:23:52.607Z,39.54
2022-10-17T12:26:27.891Z,40.35
2022-10-17T12:28:56.779Z,40.12
2022-10-17T12:31:32.450Z,39.38
2022-10-17T12:34:03.119Z,37.42
2022-10-17T12:36:31.178Z,37.11
2022-10-17T12:39:02.401Z,35.50
2022-10-17T12:41:39.557Z,35.47
2022-10-17T12:44:14.800Z,35.68
2022-10-17T12:46:45.659Z,33.83
2022-10-17T12:49:34.204Z,34.75
2022-10-17T12:52:11.638Z,35.17
2022-10-17T12:54:48.078Z,35.36
2022-10-17T12:57:46.768Z,34.28
2022-10-17T13:00:17.353Z,34.90
2022-10-17T13:02:45.870Z,35.14
2022-10-17T13:05:19.779Z,35.69
2022-10-17T13:07:49.576Z,36.40
2022-10-17T13:10:21.999Z,36.72
2022-10-17T13:12:51.381Z,35.43
2022-10-17T13:15:21.063Z,35.47
2022-10-17T13:17:55.804Z,35.71
2022-10-17T13:20:29.127Z,34.64
2022-10-17T13:22:59.990Z,35.73
2022-10-17T13:25:28.214Z,34.65
2022-10-17T13:28:07.600Z,33.11
2022-10-17T13:30:36.805Z,34.03
2022-10-17T13:33:16.699Z,34.79
2022-10-17T13:36:02.591Z,35.53
2022-10-17T13:38:36.654Z,35.22
2022-10-17T13:41:34.304Z,35.33
2022-10-17T13:43:59.694Z,35.18
2022-10-17T13:46:37.795Z,35.45
2022-10-17T13:49:11.800Z,35.32
2022-10-17T13:51:43.213Z,34.97
2022-10-17T13:54:18.553Z,35.65
2022-10-17T13:56:46.832Z,35.86
2022-10-17T13:59:25.527Z,34.20
2022-10-17T14:01:55.416Z,34.60
2022-10-17T14:04:23.540Z,34.60
2022-10-17T14:06:52.546Z,34.94
2022-10-17T14:09:25.625Z,35.38
2022-10-17T14:12:06.745Z,35.84
2022-10-17T14:14:51.971Z,36.67
2022-10-17T14:17:27.694Z,37.53
2022-10-17T14:20:30.867Z,37.17
2022-10-17T14:25:41.649Z,38.68
2022-10-17T14:28:14.118Z,38.76
2022-10-17T14:30:59.107Z,39.25
2022-10-17T14:33:29.829Z,39.87
2022-10-17T14:35:59.134Z,39.95
2022-10-17T14:38:28.516Z,40.48
2022-10-17T14:41:15.686Z,41.61
2022-10-17T14:43:59.863Z,41.96
2022-10-17T14:46:28.130Z,41.93
2022-10-17T14:48:59.600Z,41.82
2022-10-17T14:51:32.448Z,42.21
2022-10-17T14:54:26.193Z,42.88
2022-10-17T14:56:55.069Z,43.41
2022-10-17T14:59:52.299Z,43.62
2022-10-17T15:02:13.653Z,43.54
2022-10-17T15:04:42.294Z,44.26
2022-10-17T15:07:13.448Z,44.75
2022-10-17T15:09:42.175Z,45.45
2022-10-17T15:12:13.213Z,46.12
2022-10-17T15:14:41.319Z,48.65
2022-10-17T15:17:13.846Z,47.81
2022-10-17T15:19:42.029Z,48.07
2022-10-17T15:22:10.415Z,49.08
2022-10-17T15:24:38.544Z,50.34
2022-10-17T15:27:18.908Z,49.40
2022-10-17T15:29:47.520Z,50.11
2022-10-17T15:32:16.251Z,49.97
2022-10-17T15:34:44.415Z,50.64
2022-10-17T15:37:17.877Z,50.83
2022-10-17T15:39:53.396Z,51.35
2022-10-17T15:42:31.450Z,51.17
2022-10-17T15:44:59.648Z,51.92
2022-10-17T15:47:35.918Z,52.43
2022-10-17T15:50:04.945Z,51.92
2022-10-17T15:52:33.160Z,52.53
2022-10-17T15:55:04.309Z,52.57
2022-10-17T15:57:35.684Z,53.46
2022-10-17T16:00:05.377Z,54.02
2022-10-17T16:02:37.551Z,54.51
2022-10-17T16:05:11.850Z,55.16
2022-10-17T16:07:40.007Z,55.63
2022-10-17T16:10:10.224Z,55.80
2022-10-17T16:12:41.423Z,56.08
2022-10-17T16:15:14.027Z,56.17
2022-10-17T16:17:43.914Z,56.32
2022-10-17T16:20:12.985Z,56.67
2022-10-17T16:22:42.813Z,57.04
2022-10-17T16:25:19.885Z,57.16
2022-10-17T16:27:49.199Z,57.41
2022-10-17T16:30:17.882Z,57.50
2022-10-17T16:32:46.337Z,57.79
2022-10-17T16:35:17.320Z,58.00
2022-10-17T16:37:45.515Z,58.29
2022-10-17T16:40:14.069Z,58.34
2022-10-17T16:42:42.293Z,58.42
2022-10-17T16:45:16.037Z,58.48
2022-10-17T16:47:44.347Z,58.62
2022-10-17T16:50:12.635Z,58.66
2022-10-17T16:52:40.991Z,58.76
2022-10-17T16:55:10.123Z,59.08
2022-10-17T16:57:38.577Z,59.14
2022-10-17T17:00:07.311Z,59.29
2022-10-17T17:02:35.532Z,59.24
2022-10-17T17:05:04.075Z,59.36
2022-10-17T17:07:33.625Z,59.49
2022-10-17T17:10:01.894Z,59.43
2022-10-17T17:12:32.056Z,59.60
2022-10-17T17:15:00.205Z,59.50
2022-10-17T17:17:30.782Z,59.41
2022-10-17T17:20:05.631Z,59.54
2022-10-17T17:22:34.506Z,60.30
2022-10-17T17:25:02.576Z,60.33
2022-10-17T17:27:31.007Z,60.22
2022-10-17T17:29:59.204Z,59.78
2022-10-17T17:32:27.396Z,60.35
2022-10-17T17:34:55.573Z,61.03
2022-10-17T17:37:23.820Z,60.96
2022-10-17T17:39:51.923Z,60.47
2022-10-17T17:42:20.599Z,60.87
2022-10-17T17:44:49.209Z,61.24
2022-10-17T17:47:17.314Z,61.99
2022-10-17T17:49:45.417Z,61.59
2022-10-17T17:52:13.681Z,61.44
2022-10-17T17:54:41.929Z,61.50
2022-10-17T17:57:10.238Z,61.22
2022-10-17T17:59:39.707Z,61.89
2022-10-17T18:02:09.004Z,62.32
2022-10-17T18:04:37.143Z,62.23
2022-10-17T18:07:05.291Z,62.49
2022-10-17T18:09:33.408Z,63.18
2022-10-17T18:12:01.558Z,62.85
2022-10-17T18:14:29.720Z,62.37
2022-10-17T18:16:57.821Z,62.42
2022-10-17T18:19:28.443Z,62.91
2022-10-17T18:21:56.821Z,63.23
2022-10-17T18:24:24.956Z,62.86
2022-10-17T18:26:56.223Z,62.91
2022-10-17T18:29:24.477Z,63.21
2022-10-17T18:31:52.574Z,63.11
2022-10-17T18:34:21.142Z,63.51
2022-10-17T18:36:49.277Z,63.10
2022-10-17T18:39:18.062Z,62.88
2022-10-17T18:41:46.220Z,63.19
2022-10-17T18:44:15.635Z,63.48
2022-10-17T18:49:15.406Z,63.18
2022-10-17T18:51:43.474Z,63.13
2022-10-17T18:54:14.502Z,63.77
2022-10-17T18:56:43.217Z,64.65
2022-10-17T18:59:11.313Z,66.04
2022-10-17T19:01:39.510Z,66.38
2022-10-17T19:04:07.672Z,66.22
2022-10-17T19:06:35.813Z,66.14
2022-10-17T19:09:05.820Z,66.18
2022-10-17T19:11:34.471Z,66.10
2022-10-17T19:14:03.610Z,66.11
2022-10-17T19:16:33.824Z,66.16
2022-10-17T19:19:04.116Z,66.29
2022-10-17T19:21:32.652Z,66.56
2022-10-17T19:24:02.237Z,66.79
2022-10-17T19:26:31.254Z,67.04
2022-10-17T19:29:00.647Z,67.41
2022-10-17T19:31:29.925Z,67.09
2022-10-17T19:33:58.221Z,67.22
2022-10-17T19:36:32.390Z,67.07
2022-10-17T19:39:04.118Z,67.21
2022-10-17T19:41:32.549Z,67.50
2022-10-17T19:44:00.822Z,67.56
2022-10-17T19:46:29.779Z,67.93
2022-10-17T19:48:58.360Z,67.69
2022-10-17T19:51:26.879Z,67.49
2022-10-17T19:53:55.953Z,67.37
2022-10-17T19:56:24.980Z,67.79
2022-10-17T19:58:54.845Z,68.01
2022-10-17T20:01:25.584Z,67.72
2022-10-17T20:03:54.583Z,68.41
2022-10-17T20:06:23.563Z,69.02
2022-10-17T20:08:52.192Z,68.19
2022-10-17T20:11:22.467Z,68.17
2022-10-17T20:13:53.672Z,68.27
2022-10-17T20:16:23.268Z,68.69
2022-10-17T20:18:53.764Z,68.38
2022-10-17T20:21:27.465Z,68.21
2022-10-17T20:23:55.833Z,68.35
2022-10-17T20:26:37.063Z,68.06
2022-10-17T20:29:17.227Z,68.29
2022-10-17T20:31:46.041Z,68.80
2022-10-17T20:34:15.014Z,69.32
2022-10-17T20:36:45.356Z,69.46
2022-10-17T20:39:14.937Z,69.15
2022-10-17T20:41:44.013Z,70.46
2022-10-17T20:44:12.922Z,70.69
2022-10-17T20:46:52.949Z,70.39
2022-10-17T20:49:34.568Z,70.95
2022-10-17T20:52:07.125Z,71.32
2022-10-17T20:54:35.340Z,70.80
2022-10-17T20:57:04.978Z,71.57
2022-10-17T20:59:38.432Z,71.35
2022-10-17T21:02:11.134Z,70.83
2022-10-17T21:04:47.294Z,71.37
2022-10-17T21:07:16.044Z,71.85
2022-10-17T21:09:45.565Z,72.19
2022-10-17T21:12:25.965Z,71.88
2022-10-17T21:15:05.071Z,71.93
2022-10-17T21:17:33.248Z,71.29
2022-10-17T21:20:03.807Z,71.64
2022-10-17T21:22:33.455Z,72.21
2022-10-17T21:25:01.683Z,71.45
2022-10-17T21:27:29.824Z,71.90
2022-10-17T21:29:58.150Z,72.18
2022-10-17T21:32:47.201Z,72.35
2022-10-17T21:35:16.601Z,72.62
2022-10-17T21:37:44.687Z,72.62
2022-10-17T21:40:12.987Z,72.58
2022-10-17T21:42:41.119Z,72.53
2022-10-17T21:45:15.051Z,72.88
2022-10-17T21:47:54.973Z,72.24
2022-10-17T21:50:32.564Z,72.35
2022-10-17T21:53:00.681Z,71.93
2022-10-17T21:55:28.804Z,72.59
2022-10-17T21:57:56.972Z,72.90
2022-10-17T22:00:25.110Z,72.89
2022-10-17T22:02:53.265Z,72.89
2022-10-17T22:05:21.392Z,73.11
2022-10-17T22:07:49.480Z,72.94
2022-10-17T22:10:17.610Z,73.09
2022-10-17T22:12:45.701Z,73.01
2022-10-17T22:17:42.848Z,72.92
2022-10-17T22:20:10.991Z,73.04
2022-10-17T22:22:39.131Z,73.10
2022-10-17T22:25:07.434Z,73.39
2022-10-17T22:27:35.552Z,74.31
2022-10-17T22:30:04.064Z,73.59
2022-10-17T22:32:32.165Z,72.97
2022-10-17T22:35:00.242Z,73.22
2022-10-17T22:37:28.563Z,72.98
2022-10-17T22:39:56.879Z,72.84
2022-10-17T22:42:25.018Z,73.09
2022-10-17T22:44:53.153Z,73.29
2022-10-17T22:47:21.225Z,73.64
2022-10-17T22:49:49.293Z,73.35
2022-10-17T22:52:17.387Z,73.71
2022-10-17T22:54:45.457Z,73.66
2022-10-17T22:57:13.605Z,73.41
2022-10-17T22:59:41.989Z,73.58
2022-10-17T23:02:10.086Z,73.50
2022-10-17T23:04:38.267Z,73.83
2022-10-17T23:07:11.374Z,73.62
2022-10-17T23:09:39.556Z,73.76
2022-10-17T23:12:08.090Z,74.19
2022-10-17T23:14:43.290Z,73.81
2022-10-17T23:17:12.038Z,73.91
2022-10-17T23:19:40.217Z,74.07
2022-10-17T23:22:08.433Z,74.41
2022-10-17T23:24:36.566Z,74.39
2022-10-17T23:27:04.787Z,74.48
2022-10-17T23:29:33.808Z,74.50
2022-10-17T23:32:01.903Z,74.35
2022-10-17T23:34:30.678Z,74.58
2022-10-17T23:36:58.860Z,74.50
2022-10-17T23:39:27.182Z,74.41
2022-10-17T23:41:55.270Z,74.78
2022-10-17T23:44:23.927Z,74.75
2022-10-17T23:46:51.994Z,74.72
2022-10-17T23:49:20.067Z,74.89
2022-10-17T23:51:48.182Z,74.65
2022-10-17T23:54:16.327Z,74.67
2022-10-17T23:56:44.424Z,74.73
2022-10-17T23:59:12.635Z,74.23
